Time;durP1;ratioP1;P1;durP2;ratioP2;P2;SDS_P1;SDS_P2;PMS_P1;PMS_P2;Temp;Humidity;BMP_temperature;BMP_pressure;BME280_temperature;BME280_humidity;BME280_pressure;Samples;Min_cycle;Max_cycle;Signal;HPM_P1;HPM_P2
2023/04/14 00:00:44;;;;;;;0.50;0.50;;;2.50;18.80;;;;;;5099020;27;20525;-76
2023/04/14 00:03:11;;;;;;;0.60;0.50;;;2.50;21.20;;;;;;5107622;27;21323;-76
2023/04/14 00:05:39;;;;;;;0.30;0.30;;;2.40;8.70;;;;;;5114012;27;20925;-76
2023/04/14 00:08:08;;;;;;;0.73;0.73;;;2.20;1.00;;;;;;5105633;27;20426;-75
2023/04/14 00:10:37;;;;;;;0.30;0.30;;;2.20;4.50;;;;;;5114237;27;20431;-78
2023/04/14 00:13:04;;;;;;;0.70;0.70;;;2.20;16.00;;;;;;5113376;27;20419;-76
2023/04/14 00:15:31;;;;;;;0.30;0.30;;;2.10;14.70;;;;;;5099086;27;20461;-76
2023/04/14 00:17:58;;;;;;;0.50;0.30;;;2.10;19.00;;;;;;5111143;27;20469;-76
2023/04/14 00:20:25;;;;;;;0.30;0.30;;;2.10;15.20;;;;;;5105212;27;20478;-75
2023/04/14 00:22:51;;;;;;;0.40;0.40;;;2.00;8.10;;;;;;5116098;27;20438;-75
2023/04/14 00:25:18;;;;;;;0.60;0.47;;;2.00;14.70;;;;;;5101950;28;20949;-75
2023/04/14 00:27:45;;;;;;;0.30;0.30;;;1.90;18.40;;;;;;5120598;27;20426;-75
2023/04/14 00:30:12;;;;;;;0.20;0.20;;;2.00;27.90;;;;;;5119656;27;20484;-76
2023/04/14 00:32:39;;;;;;;1.50;0.50;;;2.10;38.50;;;;;;5120725;27;20420;-76
2023/04/14 00:35:06;;;;;;;1.10;0.40;;;2.00;31.10;;;;;;5104073;27;20430;-76
2023/04/14 00:37:33;;;;;;;0.40;0.40;;;1.80;28.60;;;;;;5104756;28;20424;-75
2023/04/14 00:40:00;;;;;;;0.43;0.43;;;1.70;18.50;;;;;;5119129;27;20916;-75
2023/04/14 00:42:26;;;;;;;1.40;0.50;;;1.60;11.10;;;;;;5125115;27;20433;-75
2023/04/14 00:44:53;;;;;;;0.10;0.10;;;1.50;18.50;;;;;;5105034;27;20440;-75
2023/04/14 00:47:21;;;;;;;0.20;0.20;;;1.50;15.50;;;;;;5110082;27;20480;-75
2023/04/14 00:49:49;;;;;;;0.40;0.28;;;1.50;27.90;;;;;;5113355;27;20466;-75
2023/04/14 00:52:17;;;;;;;0.60;0.60;;;1.50;42.00;;;;;;5110783;28;20453;-78
2023/04/14 00:54:44;;;;;;;0.10;0.10;;;1.50;51.90;;;;;;5106948;28;20515;-75
2023/04/14 00:57:11;;;;;;;0.50;0.50;;;1.40;40.10;;;;;;5108862;27;20920;-76
2023/04/14 00:59:37;;;;;;;0.55;0.55;;;1.30;36.90;;;;;;5117998;27;20416;-75
2023/04/14 01:02:04;;;;;;;0.20;0.20;;;1.40;51.90;;;;;;5118616;27;20548;-75
2023/04/14 01:04:31;;;;;;;0.23;0.23;;;1.40;63.40;;;;;;5119891;27;20501;-76
2023/04/14 01:07:23;;;;;;;0.30;0.30;;;1.30;59.10;;;;;;5105398;27;20425;-75
2023/04/14 01:09:51;;;;;;;0.40;0.40;;;1.20;53.60;;;;;;5112431;27;20420;-75
2023/04/14 01:12:42;;;;;;;0.30;0.30;;;1.10;56.60;;;;;;5116213;27;20424;-75
2023/04/14 01:15:15;;;;;;;0.40;0.40;;;1.00;68.80;;;;;;5101377;27;20432;-75
2023/04/14 01:18:05;;;;;;;0.63;0.52;;;0.90;61.60;;;;;;5101877;27;20419;-76
2023/04/14 01:20:36;;;;;;;0.40;0.40;;;0.80;60.00;;;;;;5116978;27;20512;-75
2023/04/14 01:23:19;;;;;;;0.70;0.53;;;0.80;69.90;;;;;;5125505;27;20432;-76
2023/04/14 01:26:42;;;;;;;0.30;0.30;;;0.70;65.00;;;;;;5100025;28;20477;-76
2023/04/14 01:29:11;;;;;;;0.40;0.40;;;0.60;63.50;;;;;;5105001;27;20438;-75
2023/04/14 01:32:00;;;;;;;0.30;0.30;;;0.50;76.20;;;;;;5113716;27;20432;-75
2023/04/14 01:34:46;;;;;;;0.67;0.67;;;0.70;95.00;;;;;;5103150;28;20484;-75
2023/04/14 01:37:16;;;;;;;0.50;0.50;;;0.90;99.90;;;;;;5098319;27;20421;-75
2023/04/14 01:39:53;;;;;;;0.70;0.70;;;1.10;99.90;;;;;;5096302;28;20425;-75
2023/04/14 01:42:25;;;;;;;0.30;0.30;;;1.10;99.90;;;;;;5114239;28;20424;-75
2023/04/14 01:44:56;;;;;;;0.40;0.40;;;1.10;99.90;;;;;;5116249;27;20446;-75
2023/04/14 01:47:28;;;;;;;1.40;0.55;;;1.10;99.90;;;;;;5118577;27;20434;-76
2023/04/14 01:49:58;;;;;;;0.60;0.60;;;1.10;99.90;;;;;;5094054;28;20513;-76
2023/04/14 01:52:26;;;;;;;2.70;0.73;;;1.00;99.90;;;;;;5115551;28;20419;-75
2023/04/14 01:54:54;;;;;;;1.13;1.03;;;1.00;99.90;;;;;;5110973;28;20420;-75
2023/04/14 01:57:24;;;;;;;0.70;0.70;;;1.00;99.90;;;;;;5109523;28;20845;-75
2023/04/14 01:59:58;;;;;;;0.28;0.28;;;1.00;99.90;;;;;;5100647;27;20452;-76
2023/04/14 02:02:26;;;;;;;0.50;0.50;;;1.00;99.90;;;;;;5108789;27;20422;-76
2023/04/14 02:04:56;;;;;;;0.20;0.20;;;1.00;99.90;;;;;;5129211;27;20418;-75
2023/04/14 02:07:24;;;;;;;0.43;0.43;;;1.00;99.90;;;;;;5093060;28;20487;-75
2023/04/14 02:09:55;;;;;;;0.70;0.50;;;0.90;99.90;;;;;;5111959;28;20476;-76
2023/04/14 02:12:23;;;;;;;0.30;0.30;;;0.90;99.90;;;;;;5114027;27;20449;-76
2023/04/14 02:14:50;;;;;;;0.80;0.50;;;0.90;99.90;;;;;;5094047;28;20427;-75
2023/04/14 02:17:19;;;;;;;0.30;0.30;;;0.80;99.90;;;;;;5094644;28;20516;-76
2023/04/14 02:19:49;;;;;;;0.20;0.20;;;0.70;99.90;;;;;;5122471;27;20418;-76
2023/04/14 02:22:16;;;;;;;0.50;0.50;;;0.80;99.90;;;;;;5113405;27;20429;-75
2023/04/14 02:24:43;;;;;;;0.80;0.30;;;0.80;99.90;;;;;;5132296;27;20418;-76
2023/04/14 02:27:15;;;;;;;0.28;0.28;;;0.80;99.90;;;;;;5120857;27;20511;-76
2023/04/14 02:29:47;;;;;;;0.40;0.40;;;0.60;99.90;;;;;;5119135;27;20420;-75
2023/04/14 02:32:21;;;;;;;0.25;0.25;;;0.50;99.90;;;;;;5114169;27;20424;-75
2023/04/14 02:35:13;;;;;;;0.90;0.90;;;0.40;99.90;;;;;;5096989;27;20809;-75
2023/04/14 02:37:43;;;;;;;0.70;0.70;;;0.30;99.90;;;;;;5111043;27;20478;-75
2023/04/14 02:40:37;;;;;;;0.50;0.50;;;0.00;99.90;;;;;;5114137;27;20967;-75
2023/04/14 02:43:12;;;;;;;0.75;0.60;;;0.00;99.90;;;;;;5104604;27;20799;-75
2023/04/14 02:45:41;;;;;;;0.75;0.75;;;-0.10;99.90;;;;;;5133160;27;20429;-75
2023/04/14 02:48:11;;;;;;;0.20;0.20;;;-0.30;99.90;;;;;;5120683;27;20916;-75
2023/04/14 02:50:46;;;;;;;0.52;0.38;;;-0.40;99.90;;;;;;5102908;27;20981;-75
2023/04/14 02:53:17;;;;;;;0.60;0.52;;;-0.50;99.20;;;;;;5108000;28;20913;-75
2023/04/14 02:55:46;;;;;;;0.50;0.50;;;-0.60;99.90;;;;;;5121235;27;20942;-75
2023/04/14 02:58:16;;;;;;;0.37;0.37;;;-0.40;99.90;;;;;;5129469;27;20415;-75
2023/04/14 03:00:44;;;;;;;0.60;0.60;;;-0.30;99.90;;;;;;5109536;27;20436;-74
2023/04/14 03:03:11;;;;;;;0.20;0.20;;;-0.30;99.90;;;;;;5108356;27;20430;-75
2023/04/14 03:05:40;;;;;;;0.30;0.30;;;-0.20;99.90;;;;;;5112971;27;20430;-74
2023/04/14 03:08:13;;;;;;;0.57;0.57;;;-0.20;99.90;;;;;;5123697;27;20910;-75
2023/04/14 03:10:43;;;;;;;0.40;0.40;;;-0.10;99.90;;;;;;5102380;27;20955;-75
2023/04/14 03:13:11;;;;;;;0.30;0.30;;;-0.10;99.90;;;;;;5104262;27;20421;-76
2023/04/14 03:15:40;;;;;;;0.20;0.20;;;-0.10;99.90;;;;;;5109654;27;20436;-75
2023/04/14 03:18:07;;;;;;;0.40;0.40;;;-0.10;99.90;;;;;;5123190;27;20415;-76
2023/04/14 03:20:35;;;;;;;0.50;0.40;;;0.00;99.90;;;;;;5123113;27;20430;-76
2023/04/14 03:23:06;;;;;;;0.80;0.80;;;0.00;99.90;;;;;;5112008;27;20535;-76
2023/04/14 03:25:36;;;;;;;0.50;0.50;;;-0.20;99.90;;;;;;5104320;27;20432;-75
2023/04/14 03:28:08;;;;;;;0.80;0.70;;;-0.30;99.90;;;;;;5122611;27;20920;-75
2023/04/14 03:30:39;;;;;;;0.40;0.40;;;-0.40;99.90;;;;;;5101152;27;20435;-76
2023/04/14 03:33:10;;;;;;;0.25;0.25;;;-0.40;99.90;;;;;;5102142;28;20991;-75
2023/04/14 03:35:37;;;;;;;0.20;0.20;;;-0.40;99.90;;;;;;5109151;27;20422;-76
2023/04/14 03:38:08;;;;;;;0.28;0.28;;;-0.50;99.90;;;;;;5116260;27;20436;-76
2023/04/14 03:40:39;;;;;;;0.40;0.40;;;-0.60;99.90;;;;;;5117949;27;20426;-75
2023/04/14 03:43:08;;;;;;;0.47;0.47;;;-0.60;99.90;;;;;;5107376;27;20430;-75
2023/04/14 03:45:43;;;;;;;0.20;0.20;;;-0.70;99.90;;;;;;5114557;27;20512;-75
2023/04/14 03:48:15;;;;;;;0.50;0.50;;;-0.70;99.90;;;;;;5098037;27;20434;-76
2023/04/14 03:50:45;;;;;;;0.40;0.40;;;-0.80;99.90;;;;;;5122472;27;20426;-76
2023/04/14 03:53:15;;;;;;;0.30;0.30;;;-0.70;99.90;;;;;;5106910;27;20422;-75
2023/04/14 03:55:44;;;;;;;0.30;0.30;;;-0.60;99.90;;;;;;5099838;27;20429;-75
2023/04/14 03:58:13;;;;;;;0.60;0.60;;;-0.60;99.90;;;;;;5115689;27;20424;-75
2023/04/14 04:00:40;;;;;;;0.55;0.52;;;-0.60;99.90;;;;;;5130339;27;20476;-75
2023/04/14 04:03:09;;;;;;;0.30;0.30;;;-0.50;99.90;;;;;;5112411;27;20425;-75
2023/04/14 04:05:39;;;;;;;0.50;0.50;;;-0.50;99.90;;;;;;5107395;27;20433;-75
2023/04/14 04:08:08;;;;;;;0.32;0.32;;;-0.50;99.90;;;;;;5104345;27;20423;-76
2023/04/14 04:10:37;;;;;;;0.40;0.40;;;-0.60;99.90;;;;;;5099762;27;20428;-76
2023/04/14 04:13:16;;;;;;;0.40;0.40;;;-0.50;99.90;;;;;;5114716;27;20424;-75
2023/04/14 04:15:45;;;;;;;0.20;0.20;;;-0.50;99.90;;;;;;5098768;28;20441;-75
2023/04/14 04:18:15;;;;;;;0.10;0.10;;;-0.50;99.90;;;;;;5116531;27;20514;-76
2023/04/14 04:20:43;;;;;;;0.30;0.30;;;-0.60;99.90;;;;;;5104431;27;20452;-76
2023/04/14 04:23:11;;;;;;;0.65;0.65;;;-0.60;99.90;;;;;;5108225;27;21090;-75
2023/04/14 04:25:39;;;;;;;0.40;0.40;;;-0.60;99.90;;;;;;5106098;27;22929;-76
2023/04/14 04:28:08;;;;;;;0.20;0.20;;;-0.50;99.90;;;;;;5098777;28;20429;-76
2023/04/14 04:30:40;;;;;;;0.38;0.38;;;-0.50;99.90;;;;;;5118382;27;20505;-76
2023/04/14 04:33:09;;;;;;;0.60;0.60;;;-0.40;99.90;;;;;;5123531;27;20507;-76
2023/04/14 04:35:37;;;;;;;0.20;0.20;;;-0.40;99.90;;;;;;5104019;28;20422;-76
2023/04/14 04:38:04;;;;;;;0.38;0.38;;;-0.30;99.90;;;;;;5112757;27;20427;-76
2023/04/14 04:40:38;;;;;;;0.40;0.40;;;-0.30;99.90;;;;;;5098043;27;20497;-76
2023/04/14 04:43:05;;;;;;;0.30;0.30;;;-0.30;99.90;;;;;;5096680;27;20432;-75
2023/04/14 04:45:45;;;;;;;0.40;0.40;;;-0.20;99.90;;;;;;5110656;27;20491;-78
2023/04/14 04:48:12;;;;;;;0.30;0.30;;;-0.20;99.90;;;;;;5123880;27;21036;-78
2023/04/14 04:50:39;;;;;;;0.60;0.60;;;-0.10;99.90;;;;;;5101713;28;20485;-78
2023/04/14 04:53:05;;;;;;;0.43;0.43;;;-0.10;99.90;;;;;;5117580;27;20446;-77
2023/04/14 04:55:32;;;;;;;1.20;0.60;;;-0.20;99.90;;;;;;5123142;27;20433;-78
2023/04/14 04:57:59;;;;;;;0.30;0.30;;;-0.20;99.90;;;;;;5126471;27;20974;-78
2023/04/14 05:00:27;;;;;;;0.30;0.30;;;-0.20;99.90;;;;;;5116620;27;20921;-78
2023/04/14 05:02:53;;;;;;;0.50;0.50;;;-0.20;99.90;;;;;;5090262;28;20512;-78
2023/04/14 05:05:20;;;;;;;0.50;0.50;;;-0.30;99.90;;;;;;5111579;27;20496;-78
2023/04/14 05:07:49;;;;;;;0.50;0.50;;;-0.30;99.90;;;;;;5104772;27;20412;-78
2023/04/14 05:10:17;;;;;;;1.27;0.88;;;-0.30;99.90;;;;;;5091728;27;20425;-78
2023/04/14 05:12:44;;;;;;;0.50;0.50;;;-0.30;99.90;;;;;;5108564;27;20422;-78
2023/04/14 05:15:11;;;;;;;1.13;1.10;;;-0.20;99.90;;;;;;5115222;27;20474;-78
2023/04/14 05:17:37;;;;;;;0.45;0.45;;;-0.10;99.90;;;;;;5116986;27;20432;-78
2023/04/14 05:20:05;;;;;;;0.50;0.50;;;0.00;99.90;;;;;;5100495;27;20500;-78
2023/04/14 05:22:34;;;;;;;0.65;0.65;;;0.10;99.90;;;;;;5110008;27;20437;-78
2023/04/14 05:25:01;;;;;;;0.30;0.30;;;0.10;99.90;;;;;;5123182;27;20428;-78
2023/04/14 05:27:28;;;;;;;0.50;0.50;;;0.20;99.90;;;;;;5094843;28;20458;-76
2023/04/14 05:29:56;;;;;;;1.05;0.82;;;0.30;99.90;;;;;;5090571;28;20542;-76
2023/04/14 05:32:23;;;;;;;0.30;0.30;;;0.40;99.90;;;;;;5105712;28;20434;-77
2023/04/14 05:34:51;;;;;;;0.73;0.73;;;0.60;99.90;;;;;;5103072;27;20424;-77
2023/04/14 05:37:18;;;;;;;0.98;0.98;;;0.70;99.90;;;;;;5105544;27;20424;-76
2023/04/14 05:39:45;;;;;;;0.40;0.40;;;0.90;99.90;;;;;;5102027;27;20428;-76
2023/04/14 05:42:12;;;;;;;0.65;0.65;;;1.10;99.90;;;;;;5100589;28;20775;-76
2023/04/14 05:44:40;;;;;;;0.47;0.47;;;1.30;99.90;;;;;;5104159;27;21138;-76
2023/04/14 05:47:06;;;;;;;0.40;0.40;;;1.40;99.90;;;;;;5099418;27;20434;-76
2023/04/14 05:49:33;;;;;;;0.77;0.77;;;1.40;99.90;;;;;;5092918;28;20520;-75
2023/04/14 05:52:00;;;;;;;0.40;0.40;;;1.60;99.90;;;;;;5101537;28;20514;-75
2023/04/14 05:54:27;;;;;;;0.52;0.50;;;1.70;99.90;;;;;;5106673;28;20428;-75
2023/04/14 05:56:55;;;;;;;0.60;0.60;;;1.80;99.90;;;;;;5095919;28;20504;-76
2023/04/14 05:59:27;;;;;;;15.17;0.93;;;1.90;99.90;;;;;;5095185;28;20430;-75
2023/04/14 06:01:54;;;;;;;0.40;0.40;;;2.10;99.90;;;;;;5092943;28;20517;-76
2023/04/14 06:04:20;;;;;;;0.40;0.40;;;2.40;99.90;;;;;;5101128;27;20431;-76
2023/04/14 06:06:47;;;;;;;0.40;0.40;;;2.50;99.90;;;;;;5098703;28;20461;-77
2023/04/14 06:09:17;;;;;;;1.00;0.63;;;2.60;99.90;;;;;;5106440;28;21027;-77
2023/04/14 06:11:44;;;;;;;0.80;0.80;;;3.00;99.90;;;;;;5124542;27;20454;-77
2023/04/14 06:14:11;;;;;;;0.50;0.50;;;3.30;99.90;;;;;;5115318;27;20483;-77
2023/04/14 06:16:38;;;;;;;1.20;0.75;;;3.50;99.90;;;;;;5112919;28;20428;-77
2023/04/14 06:19:04;;;;;;;0.50;0.50;;;3.60;99.90;;;;;;5106250;28;20493;-78
2023/04/14 06:21:31;;;;;;;0.40;0.40;;;3.50;99.90;;;;;;5110874;28;21222;-77
2023/04/14 06:23:58;;;;;;;1.30;0.80;;;3.60;99.90;;;;;;5112185;27;20446;-77
2023/04/14 06:26:25;;;;;;;0.55;0.55;;;3.80;99.90;;;;;;5112145;28;20467;-78
2023/04/14 06:28:56;;;;;;;0.70;0.60;;;4.10;99.90;;;;;;5113104;27;20501;-79
2023/04/14 06:31:22;;;;;;;0.75;0.75;;;4.20;99.90;;;;;;5107700;27;20784;-78
2023/04/14 06:33:51;;;;;;;0.68;0.68;;;4.80;99.90;;;;;;5111179;27;20424;-79
2023/04/14 06:36:18;;;;;;;0.70;0.70;;;5.30;99.90;;;;;;5111146;28;20900;-77
2023/04/14 06:38:45;;;;;;;1.20;0.82;;;5.70;99.90;;;;;;5120868;27;20907;-79
2023/04/14 06:41:11;;;;;;;0.95;0.50;;;6.00;99.90;;;;;;5119646;27;21198;-76
2023/04/14 06:43:38;;;;;;;0.40;0.40;;;6.20;99.90;;;;;;5118984;27;20426;-79
2023/04/14 06:46:05;;;;;;;0.88;0.88;;;6.50;99.90;;;;;;5102738;27;20490;-79
2023/04/14 06:48:32;;;;;;;1.00;0.90;;;6.60;99.90;;;;;;5099746;28;20968;-77
2023/04/14 06:51:02;;;;;;;0.57;0.57;;;6.60;99.90;;;;;;5106363;27;20494;-78
2023/04/14 06:53:29;;;;;;;0.85;0.85;;;6.50;99.90;;;;;;5105686;27;20428;-78
2023/04/14 06:56:02;;;;;;;1.45;1.10;;;6.00;99.90;;;;;;5099700;28;20428;-78
2023/04/14 06:58:28;;;;;;;1.00;1.00;;;5.90;99.90;;;;;;5131347;27;20429;-78
2023/04/14 07:00:56;;;;;;;0.98;0.88;;;6.20;99.90;;;;;;5102570;27;20439;-78
2023/04/14 07:03:24;;;;;;;1.00;1.00;;;6.60;99.90;;;;;;5099578;27;20476;-79
2023/04/14 07:05:53;;;;;;;1.33;1.23;;;7.00;99.90;;;;;;5099099;27;20428;-78
2023/04/14 07:08:20;;;;;;;0.80;0.75;;;7.30;99.90;;;;;;5100838;27;20465;-78
2023/04/14 07:10:47;;;;;;;1.02;1.02;;;7.40;99.90;;;;;;5103422;27;20788;-78
2023/04/14 07:13:14;;;;;;;1.30;1.20;;;7.40;99.90;;;;;;5098084;27;21214;-78
2023/04/14 07:15:46;;;;;;;1.10;1.00;;;7.30;99.90;;;;;;5102666;27;20949;-78
2023/04/14 07:18:12;;;;;;;1.60;1.38;;;6.90;99.90;;;;;;5109624;27;20427;-78
2023/04/14 07:20:39;;;;;;;6.93;1.80;;;7.00;99.90;;;;;;5103304;27;20416;-78
2023/04/14 07:23:06;;;;;;;1.10;1.10;;;7.40;99.90;;;;;;5109019;27;20472;-79
2023/04/14 07:25:35;;;;;;;0.88;0.88;;;8.00;99.90;;;;;;5116785;27;20767;-79
2023/04/14 07:28:03;;;;;;;1.15;0.95;;;8.30;99.90;;;;;;5108026;27;21149;-78
2023/04/14 07:30:30;;;;;;;8.23;2.92;;;8.70;99.90;;;;;;5112532;27;20428;-78
2023/04/14 07:32:57;;;;;;;10.85;1.98;;;8.90;99.90;;;;;;5105314;27;20430;-78
2023/04/14 07:35:25;;;;;;;1.88;1.60;;;9.00;99.90;;;;;;5093528;28;20432;-76
2023/04/14 07:37:52;;;;;;;3.07;1.67;;;9.50;99.90;;;;;;5122507;27;20440;-79
2023/04/14 07:40:19;;;;;;;3.15;1.55;;;9.70;99.90;;;;;;5112437;27;20424;-78
2023/04/14 07:42:46;;;;;;;2.03;1.48;;;9.20;99.90;;;;;;5116975;27;20459;-78
2023/04/14 07:45:12;;;;;;;2.17;1.13;;;9.40;99.90;;;;;;5107188;27;20524;-78
2023/04/14 07:47:39;;;;;;;1.83;1.00;;;9.90;99.90;;;;;;5111294;27;20420;-78
2023/04/14 07:50:06;;;;;;;3.92;1.48;;;10.20;99.90;;;;;;5111396;27;20507;-78
2023/04/14 07:52:33;;;;;;;1.25;1.15;;;10.60;99.90;;;;;;5114438;27;20426;-78
2023/04/14 07:55:00;;;;;;;1.52;1.40;;;10.90;99.90;;;;;;5122763;27;20426;-78
2023/04/14 07:57:27;;;;;;;3.92;1.23;;;11.00;99.90;;;;;;5098344;28;20529;-78
2023/04/14 07:59:54;;;;;;;1.53;1.40;;;11.40;99.90;;;;;;5122327;27;21165;-78
2023/04/14 08:02:21;;;;;;;1.25;1.17;;;11.50;99.90;;;;;;5108950;27;20776;-78
2023/04/14 08:04:48;;;;;;;4.80;1.60;;;11.80;99.90;;;;;;5092152;28;20422;-78
2023/04/14 08:07:18;;;;;;;1.17;1.07;;;12.20;99.90;;;;;;5120743;27;20462;-79
2023/04/14 08:09:46;;;;;;;1.80;1.08;;;12.20;99.90;;;;;;5132904;27;20504;-76
2023/04/14 08:12:13;;;;;;;2.00;1.20;;;11.90;99.90;;;;;;5105637;27;20521;-76
2023/04/14 08:14:41;;;;;;;6.22;1.70;;;11.80;99.90;;;;;;5122716;27;20421;-77
2023/04/14 08:17:07;;;;;;;1.80;1.20;;;12.50;99.90;;;;;;5132802;27;20418;-76
2023/04/14 08:19:34;;;;;;;4.03;1.55;;;12.90;99.90;;;;;;5117103;27;20471;-76
2023/04/14 08:22:01;;;;;;;2.08;1.35;;;13.60;99.90;;;;;;5110429;27;20432;-77
2023/04/14 08:24:27;;;;;;;1.63;1.10;;;14.10;99.90;;;;;;5124475;27;20422;-76
2023/04/14 08:26:55;;;;;;;2.00;1.40;;;14.40;99.90;;;;;;5096832;27;20433;-77
2023/04/14 08:29:25;;;;;;;2.40;1.40;;;14.50;99.90;;;;;;5124897;27;20506;-76
2023/04/14 08:31:51;;;;;;;3.03;1.45;;;14.70;99.90;;;;;;5129347;27;20426;-77
2023/04/14 08:34:18;;;;;;;1.20;1.10;;;14.90;99.90;;;;;;5106304;27;20418;-77
2023/04/14 08:36:55;;;;;;;1.23;1.13;;;14.70;99.90;;;;;;5096469;27;20434;-77
2023/04/14 08:39:22;;;;;;;1.23;1.13;;;14.50;99.90;;;;;;5130866;27;20425;-77
2023/04/14 08:41:51;;;;;;;1.70;1.40;;;14.40;99.90;;;;;;5125533;27;20819;-77
2023/04/14 08:44:18;;;;;;;1.02;1.02;;;14.10;99.90;;;;;;5111946;27;20433;-78
2023/04/14 08:46:53;;;;;;;1.37;1.27;;;14.30;99.90;;;;;;5102456;27;20946;-78
2023/04/14 08:49:34;;;;;;;1.50;1.40;;;14.40;99.90;;;;;;5111691;27;20430;-77
2023/04/14 08:52:02;;;;;;;2.75;1.38;;;14.50;99.90;;;;;;5124773;27;20506;-77
2023/04/14 08:54:30;;;;;;;0.95;0.95;;;14.30;99.90;;;;;;5119922;27;20424;-77
2023/04/14 08:57:01;;;;;;;1.48;1.23;;;14.20;99.90;;;;;;5126610;27;20969;-77
2023/04/14 08:59:28;;;;;;;3.35;1.25;;;13.70;99.90;;;;;;5120337;27;20467;-77
2023/04/14 09:01:55;;;;;;;1.45;1.35;;;12.90;99.90;;;;;;5112906;27;20489;-77
2023/04/14 09:04:22;;;;;;;5.80;1.38;;;12.80;99.90;;;;;;5093998;27;20428;-77
2023/04/14 09:06:51;;;;;;;1.35;1.05;;;13.10;99.90;;;;;;5123626;27;20515;-77
2023/04/14 09:09:18;;;;;;;1.67;1.30;;;13.50;99.90;;;;;;5111622;27;20433;-77
2023/04/14 09:11:45;;;;;;;2.20;1.10;;;14.00;99.90;;;;;;5103858;27;20517;-78
2023/04/14 09:14:13;;;;;;;2.20;1.10;;;14.20;99.90;;;;;;5106442;27;20428;-78
2023/04/14 09:16:40;;;;;;;1.50;1.33;;;14.60;99.90;;;;;;5112113;28;20477;-78
2023/04/14 09:19:07;;;;;;;1.35;1.05;;;14.90;99.90;;;;;;5097102;28;20544;-78
2023/04/14 09:21:35;;;;;;;4.32;1.67;;;14.90;99.90;;;;;;5096279;28;20428;-78
2023/04/14 09:24:28;;;;;;;1.15;1.15;;;14.90;99.90;;;;;;5095772;28;20422;-78
2023/04/14 09:27:00;;;;;;;1.17;1.08;;;15.00;99.90;;;;;;5121217;27;20418;-78
2023/04/14 09:29:27;;;;;;;2.20;0.90;;;15.10;99.90;;;;;;5106312;27;20449;-78
2023/04/14 09:31:55;;;;;;;0.95;0.95;;;15.20;99.90;;;;;;5089947;28;20428;-78
2023/04/14 09:34:21;;;;;;;2.30;1.17;;;15.30;99.90;;;;;;5105016;28;20428;-78
2023/04/14 09:37:09;;;;;;;0.87;0.87;;;15.30;99.90;;;;;;5122760;27;20469;-78
2023/04/14 09:39:48;;;;;;;1.55;1.10;;;15.50;99.90;;;;;;5092754;28;20516;-77
2023/04/14 09:42:18;;;;;;;0.98;0.90;;;15.30;99.90;;;;;;5093141;28;20433;-78
2023/04/14 09:44:55;;;;;;;1.30;1.20;;;14.80;99.90;;;;;;5124811;27;20499;-77
2023/04/14 09:47:23;;;;;;;1.13;0.80;;;14.50;99.90;;;;;;5099115;28;20439;-77
2023/04/14 09:50:02;;;;;;;3.40;1.13;;;14.70;99.90;;;;;;5092730;28;20465;-77
2023/04/14 09:52:40;;;;;;;0.98;0.88;;;14.10;99.90;;;;;;5096689;28;20430;-77
2023/04/14 09:55:15;;;;;;;4.35;0.80;;;14.70;99.90;;;;;;5099656;28;20428;-77
2023/04/14 09:57:46;;;;;;;1.60;0.95;;;15.00;99.90;;;;;;5101703;28;20424;-77
2023/04/14 10:00:23;;;;;;;1.85;0.80;;;15.10;99.90;;;;;;5101661;28;20427;-76
2023/04/14 10:02:54;;;;;;;1.00;0.90;;;15.30;99.90;;;;;;5105238;28;20430;-76
2023/04/14 10:05:26;;;;;;;4.20;0.95;;;15.50;99.90;;;;;;5110537;27;20483;-76
2023/04/14 10:07:53;;;;;;;1.00;0.83;;;15.60;99.90;;;;;;5112553;27;20487;-76
2023/04/14 10:10:21;;;;;;;2.20;1.25;;;15.50;99.90;;;;;;5095939;28;20448;-76
2023/04/14 10:12:48;;;;;;;2.20;1.20;;;15.30;99.90;;;;;;5098178;28;20438;-75
2023/04/14 10:15:16;;;;;;;1.42;0.70;;;14.90;99.90;;;;;;5104282;28;20505;-76
2023/04/14 10:17:42;;;;;;;1.55;0.90;;;14.70;99.90;;;;;;5105272;27;21040;-75
2023/04/14 10:20:09;;;;;;;1.17;0.65;;;14.60;99.90;;;;;;5108304;27;20901;-76
2023/04/14 10:22:37;;;;;;;1.90;0.70;;;15.20;99.90;;;;;;5113286;28;20422;-76
2023/04/14 10:25:08;;;;;;;2.53;0.98;;;15.10;99.90;;;;;;5110969;27;20552;-76
2023/04/14 10:27:35;;;;;;;1.15;1.05;;;15.70;99.90;;;;;;5107221;27;21119;-73
2023/04/14 10:30:04;;;;;;;0.70;0.70;;;15.90;99.90;;;;;;5104416;27;20470;-74
2023/04/14 10:32:34;;;;;;;0.60;0.60;;;16.50;99.90;;;;;;5118465;27;20428;-70
2023/04/14 10:35:08;;;;;;;1.98;0.80;;;16.50;99.90;;;;;;5102439;28;20528;-70
2023/04/14 10:37:36;;;;;;;1.45;0.98;;;15.80;99.90;;;;;;5106105;27;20455;-70
2023/04/14 10:40:05;;;;;;;0.93;0.70;;;15.90;99.90;;;;;;5109005;27;20426;-69
2023/04/14 10:42:51;;;;;;;2.33;1.00;;;15.20;99.90;;;;;;5127554;27;21207;-70
2023/04/14 10:45:18;;;;;;;1.48;0.68;;;15.70;99.90;;;;;;5093741;27;20455;-70
2023/04/14 10:47:45;;;;;;;2.50;0.80;;;15.80;99.90;;;;;;5114408;27;20429;-69
2023/04/14 10:50:14;;;;;;;0.93;0.77;;;16.50;99.90;;;;;;5104500;27;20497;-70
2023/04/14 10:52:49;;;;;;;2.78;0.95;;;17.30;99.90;;;;;;5107051;27;20466;-71
2023/04/14 10:55:16;;;;;;;3.95;0.90;;;18.10;99.90;;;;;;5109195;27;20422;-68
2023/04/14 10:57:45;;;;;;;0.70;0.70;;;18.30;99.90;;;;;;5110663;27;20501;-68
2023/04/14 11:00:21;;;;;;;1.58;0.85;;;18.50;99.80;;;;;;5107284;27;20428;-70
2023/04/14 11:02:56;;;;;;;0.50;0.50;;;18.60;98.70;;;;;;5098491;27;20428;-70
2023/04/14 11:05:24;;;;;;;0.90;0.80;;;18.30;97.80;;;;;;5101069;27;20439;-70
2023/04/14 11:07:57;;;;;;;4.30;1.00;;;17.80;97.50;;;;;;5099322;27;20434;-69
2023/04/14 11:10:31;;;;;;;0.98;0.70;;;17.50;98.20;;;;;;5106658;28;20428;-67
2023/04/14 11:13:02;;;;;;;1.83;0.80;;;17.60;97.70;;;;;;5105449;28;20427;-68
2023/04/14 11:15:42;;;;;;;1.60;0.80;;;17.80;98.50;;;;;;5104030;27;20428;-68
2023/04/14 11:18:36;;;;;;;0.75;0.60;;;17.80;95.80;;;;;;5116346;27;21217;-68
2023/04/14 11:21:07;;;;;;;2.20;0.57;;;17.90;95.90;;;;;;5101424;27;20441;-69
2023/04/14 11:23:35;;;;;;;1.20;0.43;;;18.60;96.50;;;;;;5106239;27;20954;-67
2023/04/14 11:26:05;;;;;;;0.95;0.80;;;18.90;95.70;;;;;;5109258;27;20426;-68
2023/04/14 11:28:36;;;;;;;1.20;0.68;;;19.50;96.70;;;;;;5113061;27;20430;-68
2023/04/14 11:31:05;;;;;;;1.75;0.75;;;19.70;95.90;;;;;;5095884;28;20437;-68
2023/04/14 11:33:37;;;;;;;1.20;0.53;;;19.70;95.90;;;;;;5095939;27;20428;-68
2023/04/14 11:36:05;;;;;;;0.70;0.70;;;19.30;95.60;;;;;;5103978;27;20440;-67
2023/04/14 11:38:39;;;;;;;1.00;0.57;;;19.60;94.80;;;;;;5090034;27;20421;-68
2023/04/14 11:41:07;;;;;;;1.45;0.70;;;19.40;92.70;;;;;;5088912;28;20458;-68
2023/04/14 11:43:36;;;;;;;0.88;0.47;;;19.90;92.70;;;;;;5091623;28;20478;-68
2023/04/14 11:46:04;;;;;;;2.40;0.70;;;19.80;93.40;;;;;;5101365;27;20501;-68
2023/04/14 11:48:34;;;;;;;0.60;0.50;;;19.30;92.50;;;;;;5111558;27;20514;-68
2023/04/14 11:51:02;;;;;;;3.47;0.70;;;19.60;93.50;;;;;;5103571;27;20438;-68
2023/04/14 11:53:29;;;;;;;1.65;0.65;;;18.90;94.00;;;;;;5098479;27;20465;-68
2023/04/14 11:55:56;;;;;;;2.70;1.10;;;18.50;92.50;;;;;;5100156;27;20550;-68
2023/04/14 11:58:26;;;;;;;1.35;0.50;;;18.70;93.20;;;;;;5088159;28;20465;-67
2023/04/14 12:00:56;;;;;;;0.50;0.50;;;18.20;93.70;;;;;;5098329;27;20902;-68
2023/04/14 12:03:27;;;;;;;0.28;0.28;;;18.00;92.80;;;;;;5085431;27;20436;-68
2023/04/14 12:06:00;;;;;;;1.60;0.50;;;18.20;93.50;;;;;;5091861;28;20481;-68
2023/04/14 12:08:29;;;;;;;0.85;0.73;;;18.50;93.70;;;;;;5089094;27;21819;-68
2023/04/14 12:11:12;;;;;;;0.30;0.30;;;19.20;94.50;;;;;;5085487;27;20426;-68
2023/04/14 12:13:40;;;;;;;1.00;0.60;;;19.90;92.50;;;;;;5094934;27;20440;-69
2023/04/14 12:16:07;;;;;;;2.00;0.47;;;20.20;92.20;;;;;;5086227;28;20904;-68
2023/04/14 12:18:34;;;;;;;1.00;0.60;;;20.50;93.00;;;;;;5104972;27;20426;-68
2023/04/14 12:21:04;;;;;;;0.80;0.63;;;20.20;90.90;;;;;;5106733;27;20465;-68
2023/04/14 12:23:36;;;;;;;0.80;0.40;;;19.80;90.90;;;;;;5119708;27;20426;-68
2023/04/14 12:26:10;;;;;;;0.60;0.40;;;20.20;91.20;;;;;;5100306;27;21240;-68
2023/04/14 12:28:40;;;;;;;0.70;0.40;;;20.60;91.80;;;;;;5113690;27;20794;-68
2023/04/14 12:31:07;;;;;;;0.43;0.43;;;20.90;90.70;;;;;;5120225;27;20423;-68
2023/04/14 12:33:35;;;;;;;0.70;0.70;;;20.90;90.40;;;;;;5102048;28;20519;-68
2023/04/14 12:36:11;;;;;;;0.40;0.40;;;20.30;85.70;;;;;;5106559;27;20431;-68
2023/04/14 12:38:38;;;;;;;6.45;0.50;;;20.10;84.20;;;;;;5107512;27;20892;-69
2023/04/14 12:41:09;;;;;;;0.45;0.40;;;19.30;82.10;;;;;;5100386;27;20418;-69
2023/04/14 12:43:39;;;;;;;1.25;0.38;;;18.70;83.60;;;;;;5124169;27;20437;-69
2023/04/14 12:46:06;;;;;;;0.55;0.30;;;18.60;83.50;;;;;;5093702;27;20483;-68
2023/04/14 12:48:43;;;;;;;1.00;0.30;;;18.60;85.40;;;;;;5108419;27;20483;-69
2023/04/14 12:51:18;;;;;;;0.38;0.38;;;18.80;85.70;;;;;;5095645;27;20430;-68
2023/04/14 12:53:46;;;;;;;2.45;0.43;;;19.00;85.80;;;;;;5101532;27;20464;-68
2023/04/14 12:56:26;;;;;;;1.00;0.47;;;19.80;88.20;;;;;;5102278;28;20808;-68
2023/04/14 12:58:54;;;;;;;0.60;0.40;;;20.00;85.90;;;;;;5100763;27;20949;-69
2023/04/14 13:01:22;;;;;;;0.25;0.25;;;20.20;83.90;;;;;;5094807;28;20430;-68
2023/04/14 13:03:54;;;;;;;0.30;0.30;;;19.50;82.60;;;;;;5104883;27;20459;-69